Terminal Aerodrome Forecast
Issued by NWS

Home | Current Version | Previous Version | Text Only | Print | Product List | Glossary On
Versions: 1 2 3 4 5 6 7 8 9 10 11 12 13 14
000
FTUS45 KVEF 221732
TAFVGT
TAF
KVGT 221732Z 2218/2318 14006KT P6SM SCT150
     FM230500 33006KT P6SM SCT150 SCT250
     FM231000 VRB04KT P6SM SCT150 SCT250
     FM231700 14008KT P6SM SCT150 SCT250=

USA.gov is the U.S. government's official web portal to all federal, state and local government web resources and services.